Calypso, North Carolina
Current Conditions -  °F | °C
As of 11:15 PM on Tuesday 21 Oct 2014 (Local Time) from KDPL Reporting Station
Clear Clear  
Wind Chill: 17°   Ceiling: Unl
Heat Index: 17°   Visibility: 10mi
Dew Point: 10°   Wind: 7mph
Humidity: 65%   Direction: 330°NNW
Pressure: 29.91"   Gusts: NA
Location:  35.15°N, 78.11°W
Report Text: KDPL 220315Z AUTO 33006KT 10SM CLR 17/10 A2991 RMK AO2 T01660099
Loading
Personal Weather Stations






























Interactive Weather Map
Tropical Storm Tracking
New forecast layout! Learn more

10-Day Weather Forecast

Advertisements
Track Severe Weather on mobile